sensor_id;sensor_type;location;lat;lon;timestamp;pressure;altitude;pressure_sealevel;temperature
79053;BMP280;68451;49.510;6.026;2023-05-29T00:01:51;98253.00;;;15.34
79053;BMP280;68451;49.510;6.026;2023-05-29T00:04:17;98257.81;;;15.42
79053;BMP280;68451;49.510;6.026;2023-05-29T00:06:43;98217.56;;;15.19
79053;BMP280;68451;49.510;6.026;2023-05-29T00:09:09;98265.66;;;15.37
79053;BMP280;68451;49.510;6.026;2023-05-29T00:11:34;98238.53;;;15.14
79053;BMP280;68451;49.510;6.026;2023-05-29T00:14:00;98262.91;;;15.27
79053;BMP280;68451;49.510;6.026;2023-05-29T00:16:25;98246.25;;;14.99
79053;BMP280;68451;49.510;6.026;2023-05-29T00:18:51;98069.50;;;13.77
79053;BMP280;68451;49.510;6.026;2023-05-29T00:21:17;98239.66;;;14.80
79053;BMP280;68451;49.510;6.026;2023-05-29T00:23:42;98200.84;;;14.49
79053;BMP280;68451;49.510;6.026;2023-05-29T00:26:08;98135.84;;;14.06
79053;BMP280;68451;49.510;6.026;2023-05-29T00:28:34;98260.53;;;14.70
79053;BMP280;68451;49.510;6.026;2023-05-29T00:31:01;98217.94;;;14.34
79053;BMP280;68451;49.510;6.026;2023-05-29T00:33:27;98253.94;;;14.51
79053;BMP280;68451;49.510;6.026;2023-05-29T00:35:53;98191.91;;;14.00
79053;BMP280;68451;49.510;6.026;2023-05-29T00:38:18;98274.91;;;14.46
79053;BMP280;68451;49.510;6.026;2023-05-29T00:40:43;98213.94;;;13.99
79053;BMP280;68451;49.510;6.026;2023-05-29T00:43:09;98260.50;;;14.20
79053;BMP280;68451;49.510;6.026;2023-05-29T00:45:35;98223.22;;;13.89
79053;BMP280;68451;49.510;6.026;2023-05-29T00:48:05;98270.28;;;14.08
79053;BMP280;68451;49.510;6.026;2023-05-29T00:50:31;98257.94;;;13.92
79053;BMP280;68451;49.510;6.026;2023-05-29T00:52:58;98187.75;;;13.42
79053;BMP280;68451;49.510;6.026;2023-05-29T00:55:23;98226.66;;;13.62
79053;BMP280;68451;49.510;6.026;2023-05-29T00:57:49;98272.78;;;13.86
79053;BMP280;68451;49.510;6.026;2023-05-29T01:00:15;98192.69;;;13.27
79053;BMP280;68451;49.510;6.026;2023-05-29T01:02:42;98293.88;;;13.91
79053;BMP280;68451;49.510;6.026;2023-05-29T01:05:11;98248.59;;;13.56
79053;BMP280;68451;49.510;6.026;2023-05-29T01:07:37;98004.59;;;11.97
79053;BMP280;68451;49.510;6.026;2023-05-29T01:10:03;98228.84;;;13.25
79053;BMP280;68451;49.510;6.026;2023-05-29T01:12:38;98272.66;;;13.53
79053;BMP280;68451;49.510;6.026;2023-05-29T01:15:17;98220.88;;;13.08
79053;BMP280;68451;49.510;6.026;2023-05-29T01:21:00;98225.91;;;12.98
79053;BMP280;68451;49.510;6.026;2023-05-29T01:26:42;98272.53;;;13.19
79053;BMP280;68451;49.510;6.026;2023-05-29T01:29:13;98263.28;;;13.05
79053;BMP280;68451;49.510;6.026;2023-05-29T01:31:39;98263.75;;;13.02
79053;BMP280;68451;49.510;6.026;2023-05-29T01:34:05;98297.72;;;13.20
79053;BMP280;68451;49.510;6.026;2023-05-29T01:36:30;98248.81;;;12.91
79053;BMP280;68451;49.510;6.026;2023-05-29T01:38:58;98198.50;;;12.54
79053;BMP280;68451;49.510;6.026;2023-05-29T01:41:25;98276.25;;;13.00
79053;BMP280;68451;49.510;6.026;2023-05-29T01:43:52;98217.72;;;12.60
79053;BMP280;68451;49.510;6.026;2023-05-29T01:46:19;98256.09;;;12.77
79053;BMP280;68451;49.510;6.026;2023-05-29T01:48:47;98245.44;;;12.67
79053;BMP280;68451;49.510;6.026;2023-05-29T01:51:13;98244.16;;;12.70
79053;BMP280;68451;49.510;6.026;2023-05-29T01:53:39;98090.88;;;11.62
79053;BMP280;68451;49.510;6.026;2023-05-29T01:56:06;98275.50;;;12.76
79053;BMP280;68451;49.510;6.026;2023-05-29T01:58:33;98194.63;;;12.22
79053;BMP280;68451;49.510;6.026;2023-05-29T02:01:00;98266.72;;;12.71
79053;BMP280;68451;49.510;6.026;2023-05-29T02:03:26;98227.28;;;12.42
79053;BMP280;68451;49.510;6.026;2023-05-29T02:05:55;98169.88;;;12.06
79053;BMP280;68451;49.510;6.026;2023-05-29T02:08:21;98216.94;;;12.36
79053;BMP280;68451;49.510;6.026;2023-05-29T02:10:46;98236.16;;;12.41
79053;BMP280;68451;49.510;6.026;2023-05-29T02:13:12;98258.28;;;12.57
79053;BMP280;68451;49.510;6.026;2023-05-29T02:15:38;98264.31;;;12.57
79053;BMP280;68451;49.510;6.026;2023-05-29T02:18:03;98240.63;;;12.41
79053;BMP280;68451;49.510;6.026;2023-05-29T02:20:29;98262.13;;;12.54
79053;BMP280;68451;49.510;6.026;2023-05-29T02:22:54;98271.47;;;12.50
79053;BMP280;68451;49.510;6.026;2023-05-29T02:25:20;98263.50;;;12.45
79053;BMP280;68451;49.510;6.026;2023-05-29T02:27:45;98233.53;;;12.30
79053;BMP280;68451;49.510;6.026;2023-05-29T02:30:11;98250.19;;;12.35
79053;BMP280;68451;49.510;6.026;2023-05-29T02:32:36;98197.78;;;12.00
79053;BMP280;68451;49.510;6.026;2023-05-29T02:35:02;98240.94;;;12.21
79053;BMP280;68451;49.510;6.026;2023-05-29T02:37:28;98276.03;;;12.43
79053;BMP280;68451;49.510;6.026;2023-05-29T02:39:54;98245.38;;;12.21
79053;BMP280;68451;49.510;6.026;2023-05-29T02:42:20;98127.75;;;11.43
79053;BMP280;68451;49.510;6.026;2023-05-29T02:44:45;98126.84;;;11.37
79053;BMP280;68451;49.510;6.026;2023-05-29T02:47:11;98184.50;;;11.72
79053;BMP280;68451;49.510;6.026;2023-05-29T02:49:36;98289.78;;;12.27
79053;BMP280;68451;49.510;6.026;2023-05-29T02:52:02;98165.94;;;11.44
79053;BMP280;68451;49.510;6.026;2023-05-29T02:54:27;98214.72;;;11.68
79053;BMP280;68451;49.510;6.026;2023-05-29T02:56:53;98205.78;;;11.57
79053;BMP280;68451;49.510;6.026;2023-05-29T02:59:18;98251.53;;;11.85
79053;BMP280;68451;49.510;6.026;2023-05-29T03:01:44;98118.44;;;10.87
79053;BMP280;68451;49.510;6.026;2023-05-29T03:04:10;98153.75;;;11.08
79053;BMP280;68451;49.510;6.026;2023-05-29T03:06:36;98234.22;;;11.54
79053;BMP280;68451;49.510;6.026;2023-05-29T03:09:02;98245.25;;;11.56
79053;BMP280;68451;49.510;6.026;2023-05-29T03:11:30;98229.03;;;11.47
79053;BMP280;68451;49.510;6.026;2023-05-29T03:13:56;98289.03;;;11.79
79053;BMP280;68451;49.510;6.026;2023-05-29T03:16:22;98179.47;;;11.11
79053;BMP280;68451;49.510;6.026;2023-05-29T03:18:47;98184.19;;;11.02
79053;BMP280;68451;49.510;6.026;2023-05-29T03:21:13;98221.91;;;11.25
79053;BMP280;68451;49.510;6.026;2023-05-29T03:23:38;98254.69;;;11.39
79053;BMP280;68451;49.510;6.026;2023-05-29T03:26:04;97985.09;;;9.79
79053;BMP280;68451;49.510;6.026;2023-05-29T03:28:31;98260.81;;;11.51
79053;BMP280;68451;49.510;6.026;2023-05-29T03:30:56;98249.31;;;11.52
79053;BMP280;68451;49.510;6.026;2023-05-29T03:33:22;98228.19;;;11.35
79053;BMP280;68451;49.510;6.026;2023-05-29T03:35:47;98251.81;;;11.47
79053;BMP280;68451;49.510;6.026;2023-05-29T03:38:13;98250.06;;;11.41
79053;BMP280;68451;49.510;6.026;2023-05-29T03:40:38;98274.44;;;11.53
79053;BMP280;68451;49.510;6.026;2023-05-29T03:43:04;98290.88;;;11.60
79053;BMP280;68451;49.510;6.026;2023-05-29T03:45:29;98209.78;;;11.12
79053;BMP280;68451;49.510;6.026;2023-05-29T03:47:54;98227.00;;;11.19
79053;BMP280;68451;49.510;6.026;2023-05-29T03:50:20;98303.97;;;11.72
79053;BMP280;68451;49.510;6.026;2023-05-29T03:52:46;98234.88;;;11.31
79053;BMP280;68451;49.510;6.026;2023-05-29T03:55:12;98287.59;;;11.64
79053;BMP280;68451;49.510;6.026;2023-05-29T03:57:39;98310.41;;;11.76
79053;BMP280;68451;49.510;6.026;2023-05-29T04:00:08;98278.72;;;11.47
79053;BMP280;68451;49.510;6.026;2023-05-29T04:02:36;98305.31;;;11.62
79053;BMP280;68451;49.510;6.026;2023-05-29T04:05:03;98311.94;;;11.65
79053;BMP280;68451;49.510;6.026;2023-05-29T04:07:29;98300.03;;;11.51
79053;BMP280;68451;49.510;6.026;2023-05-29T04:09:54;98144.41;;;10.64
79053;BMP280;68451;49.510;6.026;2023-05-29T04:12:20;98294.69;;;11.57
79053;BMP280;68451;49.510;6.026;2023-05-29T04:14:45;98261.97;;;11.37
79053;BMP280;68451;49.510;6.026;2023-05-29T04:17:11;98291.53;;;11.55
79053;BMP280;68451;49.510;6.026;2023-05-29T04:19:36;98280.25;;;11.55
79053;BMP280;68451;49.510;6.026;2023-05-29T04:22:01;98326.94;;;11.88
79053;BMP280;68451;49.510;6.026;2023-05-29T04:24:27;98303.28;;;11.83
79053;BMP280;68451;49.510;6.026;2023-05-29T04:26:53;98308.75;;;11.93
79053;BMP280;68451;49.510;6.026;2023-05-29T04:29:18;98325.69;;;12.08
79053;BMP280;68451;49.510;6.026;2023-05-29T04:31:44;98345.53;;;12.28
79053;BMP280;68451;49.510;6.026;2023-05-29T04:34:10;98331.53;;;12.22
79053;BMP280;68451;49.510;6.026;2023-05-29T04:36:35;98329.16;;;12.32
79053;BMP280;68451;49.510;6.026;2023-05-29T04:39:04;98284.50;;;12.16
79053;BMP280;68451;49.510;6.026;2023-05-29T04:41:30;98094.28;;;11.21
79053;BMP280;68451;49.510;6.026;2023-05-29T04:43:56;98325.06;;;12.89
79053;BMP280;68451;49.510;6.026;2023-05-29T04:46:22;98102.75;;;11.77
79053;BMP280;68451;49.510;6.026;2023-05-29T04:48:49;98125.19;;;12.31
79053;BMP280;68451;49.510;6.026;2023-05-29T04:51:21;98359.97;;;14.16
79053;BMP280;68451;49.510;6.026;2023-05-29T04:53:47;98294.22;;;14.11
79053;BMP280;68451;49.510;6.026;2023-05-29T04:56:13;98328.06;;;14.69
79053;BMP280;68451;49.510;6.026;2023-05-29T04:58:40;98373.44;;;15.32
79053;BMP280;68451;49.510;6.026;2023-05-29T05:01:06;98353.81;;;15.56
79053;BMP280;68451;49.510;6.026;2023-05-29T05:03:34;98222.22;;;15.12
79053;BMP280;68451;49.510;6.026;2023-05-29T05:06:01;98313.03;;;16.07
79053;BMP280;68451;49.510;6.026;2023-05-29T05:08:29;98363.97;;;16.66
79053;BMP280;68451;49.510;6.026;2023-05-29T05:10:55;98364.81;;;17.04
79053;BMP280;68451;49.510;6.026;2023-05-29T05:13:21;98322.16;;;17.17
79053;BMP280;68451;49.510;6.026;2023-05-29T05:15:46;98349.91;;;17.81
79053;BMP280;68451;49.510;6.026;2023-05-29T05:18:12;98347.41;;;18.27
79053;BMP280;68451;49.510;6.026;2023-05-29T05:20:37;98357.81;;;18.94
79053;BMP280;68451;49.510;6.026;2023-05-29T05:23:03;98327.56;;;19.46
79053;BMP280;68451;49.510;6.026;2023-05-29T05:25:28;98364.81;;;20.24
79053;BMP280;68451;49.510;6.026;2023-05-29T05:27:54;98347.03;;;20.68
79053;BMP280;68451;49.510;6.026;2023-05-29T05:30:19;98307.97;;;20.79
79053;BMP280;68451;49.510;6.026;2023-05-29T05:32:45;98380.38;;;21.89
79053;BMP280;68451;49.510;6.026;2023-05-29T05:35:10;98382.97;;;22.56
79053;BMP280;68451;49.510;6.026;2023-05-29T05:37:37;98357.59;;;22.96
79053;BMP280;68451;49.510;6.026;2023-05-29T05:40:04;98354.41;;;23.40
79053;BMP280;68451;49.510;6.026;2023-05-29T05:42:32;98316.44;;;23.34
79053;BMP280;68451;49.510;6.026;2023-05-29T05:44:57;98379.00;;;24.05
79053;BMP280;68451;49.510;6.026;2023-05-29T05:47:23;98351.50;;;24.32
79053;BMP280;68451;49.510;6.026;2023-05-29T05:49:48;98314.69;;;24.42
79053;BMP280;68451;49.510;6.026;2023-05-29T05:52:17;98377.72;;;25.19
79053;BMP280;68451;49.510;6.026;2023-05-29T05:54:43;98359.91;;;25.45
79053;BMP280;68451;49.510;6.026;2023-05-29T05:57:10;98279.41;;;24.99
79053;BMP280;68451;49.510;6.026;2023-05-29T05:59:35;98321.19;;;24.94
79053;BMP280;68451;49.510;6.026;2023-05-29T06:02:01;98343.09;;;25.14
79053;BMP280;68451;49.510;6.026;2023-05-29T06:04:29;98388.84;;;25.74
79053;BMP280;68451;49.510;6.026;2023-05-29T06:06:54;98372.31;;;25.72
79053;BMP280;68451;49.510;6.026;2023-05-29T06:09:20;98380.13;;;25.29
79053;BMP280;68451;49.510;6.026;2023-05-29T06:11:46;98387.22;;;25.03
79053;BMP280;68451;49.510;6.026;2023-05-29T06:14:13;98358.91;;;24.79
79053;BMP280;68451;49.510;6.026;2023-05-29T06:16:39;98405.63;;;25.04
79053;BMP280;68451;49.510;6.026;2023-05-29T06:19:05;98415.16;;;25.27
79053;BMP280;68451;49.510;6.026;2023-05-29T06:21:31;98409.47;;;25.51
79053;BMP280;68451;49.510;6.026;2023-05-29T06:24:00;98362.28;;;25.47
79053;BMP280;68451;49.510;6.026;2023-05-29T06:26:26;98268.06;;;25.32
79053;BMP280;68451;49.510;6.026;2023-05-29T06:28:52;98386.50;;;25.90
79053;BMP280;68451;49.510;6.026;2023-05-29T06:31:18;98408.28;;;26.14
79053;BMP280;68451;49.510;6.026;2023-05-29T06:33:44;98376.72;;;25.76
79053;BMP280;68451;49.510;6.026;2023-05-29T06:36:09;98369.19;;;25.39
79053;BMP280;68451;49.510;6.026;2023-05-29T06:38:36;98414.03;;;26.38
79053;BMP280;68451;49.510;6.026;2023-05-29T06:41:01;98392.31;;;26.91
79053;BMP280;68451;49.510;6.026;2023-05-29T06:43:28;98361.69;;;27.09
79053;BMP280;68451;49.510;6.026;2023-05-29T06:45:54;98393.41;;;27.45
79053;BMP280;68451;49.510;6.026;2023-05-29T06:48:19;98405.78;;;27.76
79053;BMP280;68451;49.510;6.026;2023-05-29T06:50:45;98423.69;;;27.92
79053;BMP280;68451;49.510;6.026;2023-05-29T06:53:10;98422.94;;;27.83
79053;BMP280;68451;49.510;6.026;2023-05-29T06:55:36;98354.59;;;26.96
79053;BMP280;68451;49.510;6.026;2023-05-29T06:58:01;98391.66;;;26.68
79053;BMP280;68451;49.510;6.026;2023-05-29T07:00:27;98403.16;;;26.43
79053;BMP280;68451;49.510;6.026;2023-05-29T07:02:54;98407.44;;;26.96
79053;BMP280;68451;49.510;6.026;2023-05-29T07:05:19;98379.38;;;26.59
79053;BMP280;68451;49.510;6.026;2023-05-29T07:07:45;98359.22;;;26.53
79053;BMP280;68451;49.510;6.026;2023-05-29T07:10:10;98116.81;;;25.14
79053;BMP280;68451;49.510;6.026;2023-05-29T07:12:36;98377.16;;;27.04
79053;BMP280;68451;49.510;6.026;2023-05-29T07:15:01;98377.16;;;27.04
79053;BMP280;68451;49.510;6.026;2023-05-29T07:17:27;98372.47;;;27.39
79053;BMP280;68451;49.510;6.026;2023-05-29T07:19:53;98371.50;;;27.43
79053;BMP280;68451;49.510;6.026;2023-05-29T07:22:19;98364.59;;;27.34
79053;BMP280;68451;49.510;6.026;2023-05-29T07:24:45;98340.84;;;27.62
79053;BMP280;68451;49.510;6.026;2023-05-29T07:27:11;98384.75;;;28.36
79053;BMP280;68451;49.510;6.026;2023-05-29T07:29:36;98417.91;;;28.82
79053;BMP280;68451;49.510;6.026;2023-05-29T07:32:02;98394.13;;;28.72
79053;BMP280;68451;49.510;6.026;2023-05-29T07:34:28;98412.13;;;28.92
79053;BMP280;68451;49.510;6.026;2023-05-29T07:36:59;98416.81;;;28.95
79053;BMP280;68451;49.510;6.026;2023-05-29T07:39:25;98401.13;;;28.64
79053;BMP280;68451;49.510;6.026;2023-05-29T07:41:51;98367.09;;;28.06
79053;BMP280;68451;49.510;6.026;2023-05-29T07:44:16;98361.03;;;27.68
79053;BMP280;68451;49.510;6.026;2023-05-29T07:46:42;98389.38;;;27.69
79053;BMP280;68451;49.510;6.026;2023-05-29T07:49:07;98408.25;;;27.89
79053;BMP280;68451;49.510;6.026;2023-05-29T07:51:33;98420.16;;;28.00
79053;BMP280;68451;49.510;6.026;2023-05-29T07:53:58;98408.75;;;27.83
79053;BMP280;68451;49.510;6.026;2023-05-29T07:56:24;98356.94;;;27.62
79053;BMP280;68451;49.510;6.026;2023-05-29T07:58:51;98395.41;;;28.24
79053;BMP280;68451;49.510;6.026;2023-05-29T08:01:18;98433.78;;;28.66
79053;BMP280;68451;49.510;6.026;2023-05-29T08:03:44;98393.19;;;28.26
79053;BMP280;68451;49.510;6.026;2023-05-29T08:06:10;98390.25;;;28.19
79053;BMP280;68451;49.510;6.026;2023-05-29T08:08:36;98407.84;;;27.99
79053;BMP280;68451;49.510;6.026;2023-05-29T08:11:02;98428.06;;;27.68
79053;BMP280;68451;49.510;6.026;2023-05-29T08:13:29;98357.44;;;26.74
79053;BMP280;68451;49.510;6.026;2023-05-29T08:15:55;98412.63;;;26.92
79053;BMP280;68451;49.510;6.026;2023-05-29T08:18:21;98412.72;;;27.22
79053;BMP280;68451;49.510;6.026;2023-05-29T08:20:47;98424.34;;;27.43
79053;BMP280;68451;49.510;6.026;2023-05-29T08:23:12;98388.00;;;27.16
79053;BMP280;68451;49.510;6.026;2023-05-29T08:25:38;98418.97;;;27.51
79053;BMP280;68451;49.510;6.026;2023-05-29T08:28:04;98307.47;;;27.04
79053;BMP280;68451;49.510;6.026;2023-05-29T08:30:29;98408.25;;;27.43
79053;BMP280;68451;49.510;6.026;2023-05-29T08:32:55;98406.84;;;27.37
79053;BMP280;68451;49.510;6.026;2023-05-29T08:35:20;98418.84;;;27.39
79053;BMP280;68451;49.510;6.026;2023-05-29T08:37:45;98345.59;;;27.01
79053;BMP280;68451;49.510;6.026;2023-05-29T08:40:11;98423.53;;;27.51
79053;BMP280;68451;49.510;6.026;2023-05-29T08:42:48;98418.53;;;27.41
79053;BMP280;68451;49.510;6.026;2023-05-29T08:45:18;98384.69;;;27.10
79053;BMP280;68451;49.510;6.026;2023-05-29T08:47:44;98419.44;;;27.53
79053;BMP280;68451;49.510;6.026;2023-05-29T08:50:12;98416.22;;;27.69
79053;BMP280;68451;49.510;6.026;2023-05-29T08:52:40;98398.59;;;27.59
79053;BMP280;68451;49.510;6.026;2023-05-29T08:55:06;98335.19;;;27.46
79053;BMP280;68451;49.510;6.026;2023-05-29T08:57:32;98377.47;;;27.87
79053;BMP280;68451;49.510;6.026;2023-05-29T08:59:58;98284.44;;;27.49
79053;BMP280;68451;49.510;6.026;2023-05-29T09:02:24;98419.13;;;28.64
79053;BMP280;68451;49.510;6.026;2023-05-29T09:04:49;98274.72;;;27.66
79053;BMP280;68451;49.510;6.026;2023-05-29T09:07:18;98384.09;;;28.19
79053;BMP280;68451;49.510;6.026;2023-05-29T09:09:45;98417.88;;;28.20
79053;BMP280;68451;49.510;6.026;2023-05-29T09:12:11;98404.19;;;28.04
79053;BMP280;68451;49.510;6.026;2023-05-29T09:14:39;98402.09;;;27.89
79053;BMP280;68451;49.510;6.026;2023-05-29T09:17:06;98399.28;;;27.77
79053;BMP280;68451;49.510;6.026;2023-05-29T09:19:34;98404.22;;;27.75
79053;BMP280;68451;49.510;6.026;2023-05-29T09:22:01;98403.66;;;27.52
79053;BMP280;68451;49.510;6.026;2023-05-29T09:24:28;98402.88;;;27.43
79053;BMP280;68451;49.510;6.026;2023-05-29T09:26:53;98394.72;;;27.31
79053;BMP280;68451;49.510;6.026;2023-05-29T09:29:19;98392.06;;;27.22
79053;BMP280;68451;49.510;6.026;2023-05-29T09:31:46;98405.34;;;27.19
79053;BMP280;68451;49.510;6.026;2023-05-29T09:34:12;98377.00;;;26.57
79053;BMP280;68451;49.510;6.026;2023-05-29T09:36:38;98282.53;;;26.31
79053;BMP280;68451;49.510;6.026;2023-05-29T09:39:03;98368.34;;;26.78
79053;BMP280;68451;49.510;6.026;2023-05-29T09:41:29;98418.28;;;27.08
79053;BMP280;68451;49.510;6.026;2023-05-29T09:43:56;98403.63;;;26.97
79053;BMP280;68451;49.510;6.026;2023-05-29T09:46:26;98383.13;;;26.84
79053;BMP280;68451;49.510;6.026;2023-05-29T09:48:51;98362.97;;;26.78
79053;BMP280;68451;49.510;6.026;2023-05-29T09:51:23;98374.66;;;26.73
79053;BMP280;68451;49.510;6.026;2023-05-29T09:53:49;98411.50;;;26.76
79053;BMP280;68451;49.510;6.026;2023-05-29T09:56:16;98401.91;;;26.66
79053;BMP280;68451;49.510;6.026;2023-05-29T09:58:43;98412.16;;;26.64
79053;BMP280;68451;49.510;6.026;2023-05-29T10:01:13;98408.34;;;26.22
79053;BMP280;68451;49.510;6.026;2023-05-29T10:03:41;98403.03;;;25.83
79053;BMP280;68451;49.510;6.026;2023-05-29T10:06:09;98412.06;;;25.56
79053;BMP280;68451;49.510;6.026;2023-05-29T10:08:37;98376.66;;;25.28
79053;BMP280;68451;49.510;6.026;2023-05-29T10:11:05;98391.75;;;25.24
79053;BMP280;68451;49.510;6.026;2023-05-29T10:13:37;98423.38;;;25.31
79053;BMP280;68451;49.510;6.026;2023-05-29T10:16:10;98351.72;;;25.02
79053;BMP280;68451;49.510;6.026;2023-05-29T10:18:38;98365.19;;;25.28
79053;BMP280;68451;49.510;6.026;2023-05-29T10:21:11;98277.50;;;24.68
79053;BMP280;68451;49.510;6.026;2023-05-29T10:23:37;98363.25;;;24.89
79053;BMP280;68451;49.510;6.026;2023-05-29T10:26:12;98388.78;;;25.26
79053;BMP280;68451;49.510;6.026;2023-05-29T10:28:42;98404.03;;;25.56
79053;BMP280;68451;49.510;6.026;2023-05-29T10:31:16;98355.91;;;25.25
79053;BMP280;68451;49.510;6.026;2023-05-29T10:36:37;98354.25;;;25.07
79053;BMP280;68451;49.510;6.026;2023-05-29T10:39:03;98400.88;;;25.54
79053;BMP280;68451;49.510;6.026;2023-05-29T10:41:29;98337.09;;;25.39
79053;BMP280;68451;49.510;6.026;2023-05-29T10:43:59;98271.41;;;24.99
79053;BMP280;68451;49.510;6.026;2023-05-29T10:49:25;98392.44;;;25.38
79053;BMP280;68451;49.510;6.026;2023-05-29T10:51:51;98226.22;;;24.27
79053;BMP280;68451;49.510;6.026;2023-05-29T10:54:24;98363.72;;;24.91
79053;BMP280;68451;49.510;6.026;2023-05-29T10:56:58;98386.41;;;24.80
79053;BMP280;68451;49.510;6.026;2023-05-29T10:59:24;98389.88;;;24.58
79053;BMP280;68451;49.510;6.026;2023-05-29T11:01:55;98350.03;;;24.12
79053;BMP280;68451;49.510;6.026;2023-05-29T11:04:26;98264.31;;;23.69
79053;BMP280;68451;49.510;6.026;2023-05-29T11:06:52;98362.13;;;24.45
79053;BMP280;68451;49.510;6.026;2023-05-29T11:09:34;98271.97;;;23.84
79053;BMP280;68451;49.510;6.026;2023-05-29T11:12:12;98269.16;;;23.67
79053;BMP280;68451;49.510;6.026;2023-05-29T11:14:52;98376.94;;;24.16
79053;BMP280;68451;49.510;6.026;2023-05-29T11:17:31;98418.31;;;24.27
79053;BMP280;68451;49.510;6.026;2023-05-29T11:20:00;98416.66;;;24.17
79053;BMP280;68451;49.510;6.026;2023-05-29T11:22:32;98352.97;;;23.61
79053;BMP280;68451;49.510;6.026;2023-05-29T11:25:00;98358.50;;;23.64
79053;BMP280;68451;49.510;6.026;2023-05-29T11:27:26;98400.66;;;23.76
79053;BMP280;68451;49.510;6.026;2023-05-29T11:29:52;98384.56;;;23.68
79053;BMP280;68451;49.510;6.026;2023-05-29T11:32:21;98373.88;;;23.54
79053;BMP280;68451;49.510;6.026;2023-05-29T11:34:49;98319.66;;;23.17
79053;BMP280;68451;49.510;6.026;2023-05-29T11:37:17;98354.63;;;23.57
79053;BMP280;68451;49.510;6.026;2023-05-29T11:39:43;98389.88;;;23.68
79053;BMP280;68451;49.510;6.026;2023-05-29T11:42:08;98372.91;;;23.77
79053;BMP280;68451;49.510;6.026;2023-05-29T11:44:34;98347.25;;;23.68
79053;BMP280;68451;49.510;6.026;2023-05-29T11:47:01;98337.47;;;23.63
79053;BMP280;68451;49.510;6.026;2023-05-29T11:49:29;98281.38;;;23.13
79053;BMP280;68451;49.510;6.026;2023-05-29T11:52:05;98371.03;;;23.64
79053;BMP280;68451;49.510;6.026;2023-05-29T11:54:33;98221.16;;;22.58
79053;BMP280;68451;49.510;6.026;2023-05-29T11:56:58;98358.09;;;23.57
79053;BMP280;68451;49.510;6.026;2023-05-29T11:59:28;98363.03;;;23.78
79053;BMP280;68451;49.510;6.026;2023-05-29T12:01:54;98237.31;;;23.07
79053;BMP280;68451;49.510;6.026;2023-05-29T12:04:20;98379.81;;;24.05
79053;BMP280;68451;49.510;6.026;2023-05-29T12:06:45;98341.28;;;23.84
79053;BMP280;68451;49.510;6.026;2023-05-29T12:09:23;98381.44;;;24.15
79053;BMP280;68451;49.510;6.026;2023-05-29T12:11:50;98385.44;;;24.18
79053;BMP280;68451;49.510;6.026;2023-05-29T12:14:16;98310.41;;;23.83
79053;BMP280;68451;49.510;6.026;2023-05-29T12:16:41;98365.44;;;24.15
79053;BMP280;68451;49.510;6.026;2023-05-29T12:19:07;98215.13;;;23.26
79053;BMP280;68451;49.510;6.026;2023-05-29T12:21:33;98139.09;;;22.92
79053;BMP280;68451;49.510;6.026;2023-05-29T12:23:58;98357.44;;;24.29
79053;BMP280;68451;49.510;6.026;2023-05-29T12:26:24;98314.53;;;23.89
79053;BMP280;68451;49.510;6.026;2023-05-29T12:28:51;98295.69;;;23.72
79053;BMP280;68451;49.510;6.026;2023-05-29T12:31:27;98344.91;;;24.02
79053;BMP280;68451;49.510;6.026;2023-05-29T12:33:57;98247.06;;;23.26
79053;BMP280;68451;49.510;6.026;2023-05-29T12:36:25;98002.13;;;21.75
79053;BMP280;68451;49.510;6.026;2023-05-29T12:38:51;98323.13;;;23.86
79053;BMP280;68451;49.510;6.026;2023-05-29T12:41:25;98318.31;;;23.75
79053;BMP280;68451;49.510;6.026;2023-05-29T12:43:55;98349.19;;;23.89
79053;BMP280;68451;49.510;6.026;2023-05-29T12:46:22;98363.91;;;24.00
79053;BMP280;68451;49.510;6.026;2023-05-29T12:48:48;98250.22;;;23.28
79053;BMP280;68451;49.510;6.026;2023-05-29T12:51:17;98338.03;;;24.01
79053;BMP280;68451;49.510;6.026;2023-05-29T12:53:42;98316.72;;;23.87
79053;BMP280;68451;49.510;6.026;2023-05-29T12:56:08;98329.59;;;24.07
79053;BMP280;68451;49.510;6.026;2023-05-29T12:58:33;98318.06;;;23.98
79053;BMP280;68451;49.510;6.026;2023-05-29T13:00:59;98301.09;;;23.94
79053;BMP280;68451;49.510;6.026;2023-05-29T13:03:24;98323.28;;;24.17
79053;BMP280;68451;49.510;6.026;2023-05-29T13:05:51;98329.50;;;24.13
79053;BMP280;68451;49.510;6.026;2023-05-29T13:08:17;98314.53;;;23.89
79053;BMP280;68451;49.510;6.026;2023-05-29T13:10:44;98351.91;;;24.12
79053;BMP280;68451;49.510;6.026;2023-05-29T13:13:10;98331.41;;;23.98
79053;BMP280;68451;49.510;6.026;2023-05-29T13:15:37;98307.31;;;23.90
79053;BMP280;68451;49.510;6.026;2023-05-29T13:18:05;98348.16;;;24.13
79053;BMP280;68451;49.510;6.026;2023-05-29T13:20:31;98277.13;;;23.67
79053;BMP280;68451;49.510;6.026;2023-05-29T13:22:57;98321.63;;;23.94
79053;BMP280;68451;49.510;6.026;2023-05-29T13:25:23;98345.31;;;24.23
79053;BMP280;68451;49.510;6.026;2023-05-29T13:27:51;98341.56;;;24.24
79053;BMP280;68451;49.510;6.026;2023-05-29T13:30:17;98333.66;;;24.19
79053;BMP280;68451;49.510;6.026;2023-05-29T13:32:43;98349.41;;;24.29
79053;BMP280;68451;49.510;6.026;2023-05-29T13:35:09;98332.53;;;24.20
79053;BMP280;68451;49.510;6.026;2023-05-29T13:37:36;98298.66;;;24.06
79053;BMP280;68451;49.510;6.026;2023-05-29T13:40:03;98354.25;;;24.40
79053;BMP280;68451;49.510;6.026;2023-05-29T13:42:29;98315.00;;;24.19
79053;BMP280;68451;49.510;6.026;2023-05-29T13:44:54;98319.72;;;24.08
79053;BMP280;68451;49.510;6.026;2023-05-29T13:47:20;98267.75;;;23.83
79053;BMP280;68451;49.510;6.026;2023-05-29T13:49:45;98268.22;;;23.85
79053;BMP280;68451;49.510;6.026;2023-05-29T13:52:11;98309.16;;;24.17
79053;BMP280;68451;49.510;6.026;2023-05-29T13:54:38;98298.56;;;24.12
79053;BMP280;68451;49.510;6.026;2023-05-29T13:57:04;98338.88;;;24.24
79053;BMP280;68451;49.510;6.026;2023-05-29T13:59:32;98294.38;;;23.97
79053;BMP280;68451;49.510;6.026;2023-05-29T14:01:58;98321.91;;;24.06
79053;BMP280;68451;49.510;6.026;2023-05-29T14:04:24;98330.75;;;24.15
79053;BMP280;68451;49.510;6.026;2023-05-29T14:06:50;98325.06;;;24.22
79053;BMP280;68451;49.510;6.026;2023-05-29T14:09:16;98277.50;;;23.88
79053;BMP280;68451;49.510;6.026;2023-05-29T14:11:42;98217.34;;;23.59
79053;BMP280;68451;49.510;6.026;2023-05-29T14:14:07;98080.69;;;22.68
79053;BMP280;68451;49.510;6.026;2023-05-29T14:16:33;98326.31;;;24.24
79053;BMP280;68451;49.510;6.026;2023-05-29T14:18:59;98316.44;;;24.25